This is the latest recevied weather packets stored in our database for station/object NR5ON-13. If no packets are shown the sender has not sent any weather packets the latest 10 day(s).
| Time | Temp. | Humidity | Pressure | Rain* | Wind** | Luminosity | Snow |
|---|---|---|---|---|---|---|---|
| 1777823009 | 13.33° C | 45% | 1023.9 hPa | 0 mm | - | - | - |
| 1777822713 | 13.33° C | 45% | 1023.9 hPa | 0 mm | - | - | - |
| 1777822400 | 13.33° C | 42% | 1023.9 hPa | 0 mm | - | - | - |
| 1777822109 | 12.78° C | 43% | 1024 hPa | 0 mm | - | - | - |
| 1777821814 | 12.78° C | 43% | 1024.1 hPa | 0 mm | - | - | - |
| 1777821519 | 13.33° C | 44% | 1024.1 hPa | 0 mm | - | - | - |
| 1777821203 | 12.78° C | 45% | 1024.1 hPa | 0 mm | - | - | - |
| 1777820908 | 12.78° C | 45% | 1024.1 hPa | 0 mm | - | - | - |
| 1777820613 | 12.78° C | 45% | 1024.2 hPa | 0 mm | - | - | - |
| 1777820303 | 12.78° C | 45% | 1024.3 hPa | 0 mm | - | - | - |
| 1777820008 | 12.78° C | 45% | 1024 hPa | 0 mm | - | - | - |
| 1777819713 | 12.22° C | 47% | 1024.1 hPa | 0 mm | - | - | - |
| 1777819418 | 12.22° C | 48% | 1024 hPa | 0 mm | - | - | - |
| 1777819104 | 12.22° C | 48% | 1024 hPa | 0 mm | - | - | - |
| 1777818810 | 11.67° C | 48% | 1024 hPa | 0 mm | - | - | - |
| 1777818515 | 11.67° C | 50% | 1024 hPa | 0 mm | - | - | - |
| 1777818201 | 11.11° C | 50% | 1024 hPa | 0 mm | - | - | - |
| 1777817906 | 11.11° C | 52% | 1024 hPa | 0 mm | - | - | - |
| 1777817611 | 10.56° C | 58% | 1024.1 hPa | 0 mm | - | - | - |
| 1777817300 | 9.44° C | 63% | 1024.1 hPa | 0 mm | - | - | - |
| 1777817005 | 8.89° C | 66% | 1024.1 hPa | 0 mm | - | - | - |
| 1777816710 | 8.33° C | 67% | 1024.3 hPa | 0 mm | - | - | - |
| 1777816414 | 8.33° C | 67% | 1024.3 hPa | 0 mm | - | - | - |
| 1777816103 | 7.78° C | 68% | 1024.4 hPa | 0 mm | - | - | - |
| 1777815808 | 7.78° C | 69% | 1024.5 hPa | 0 mm | - | - | - |
* Rain latest hour (hover to see other rain measurements)
** Current wind speed in m/s (hover to see current wind gust speed)